Ossian — WDF2623 — position and weather

sailwx.info

Track history (hours):
 
Tides and Currents Weather Stations Pressure Air Temp Water Temp Dewpoint Dewpoint Depression Visibility Wind Speed Wind Dir Waves Ship Positions

Ossian

Owner: Hartzell, Scott R, Florence, OR. More information available from US FCC via Universal Licensing System and Coast Guard Vessel Documentation Center.

Last reported at 2015-Jun-10 07:18 UTC. Time now 2015-Jul-03 12:19 UTC.
Position N 43°45' W 124°40'.
Warning: this ship's position is 23 days out of date.

Length 26 m.

Type: Fishing. MMSI: 366773410.

Date/timePositionNaut miles runAvg speedWind from/ knotsBaromVisibWave heightAir tempDewpointWater temp
2015-Jun-10 07:18N 43°45' W 124°40'3 1.1
2015-Jun-10 04:15N 43°49' W 124°41'1 0.7
2015-Jun-10 03:25N 43°49' W 124°41'1 0.9
2015-Jun-10 02:33N 43°50' W 124°41'1 0.9
2015-Jun-10 01:33N 43°51' W 124°41'0 0.3
2015-Jun-10 00:33N 43°51' W 124°40'2 2.2
2015-Jun-09 23:33N 43°49' W 124°41'3 3.3
2015-Jun-09 22:33N 43°46' W 124°40'3 0.8
2015-Jun-09 18:22N 43°49' W 124°40'1 0.8
2015-Jun-09 17:27N 43°50' W 124°41'2 1.9
2015-Jun-09 16:33N 43°52' W 124°40'8 8.0
2015-Jun-09 15:34N 43°47' W 124°31'8 7.6
2015-Jun-09 14:30N 43°43' W 124°22'  
Track history (hours):
 
Tides and Currents Weather Stations Pressure Air Temp Water Temp Dewpoint Dewpoint Depression Visibility Wind Speed Wind Dir Waves Ship Positions

Ossian

Owner: Hartzell, Scott R, Florence, OR. More information available from US FCC via Universal Licensing System and Coast Guard Vessel Documentation Center.

Last reported at 2015-Jun-10 07:18 UTC. Time now 2015-Jul-03 12:19 UTC.
Position N 43°45' W 124°40'.
Warning: this ship's position is 23 days out of date.

Length 26 m.

Type: Fishing. MMSI: 366773410.

Date/timePositionNaut miles runAvg speedWind from/ knotsBaromVisibWave heightAir tempDewpointWater temp
2015-Jun-10 07:18N 43°45' W 124°40'3 1.1
2015-Jun-10 04:15N 43°49' W 124°41'1 0.7
2015-Jun-10 03:25N 43°49' W 124°41'1 0.9
2015-Jun-10 02:33N 43°50' W 124°41'1 0.9
2015-Jun-10 01:33N 43°51' W 124°41'0 0.3
2015-Jun-10 00:33N 43°51' W 124°40'2 2.2
2015-Jun-09 23:33N 43°49' W 124°41'3 3.3
2015-Jun-09 22:33N 43°46' W 124°40'3 0.8
2015-Jun-09 18:22N 43°49' W 124°40'1 0.8
2015-Jun-09 17:27N 43°50' W 124°41'2 1.9
2015-Jun-09 16:33N 43°52' W 124°40'8 8.0
2015-Jun-09 15:34N 43°47' W 124°31'8 7.6
2015-Jun-09 14:30N 43°43' W 124°22'  

Dump ship's entire track history